Time,TemperatureF,DewpointF,PressureIn,WindDirection,WindDirectionDegrees,WindSpeedMPH,WindSpeedGustMPH,Humidity,HourlyPrecipIn,Conditions,Clouds,dailyrainin,SoftwareType,DateUTC
2013-10-26 00:01:00,41.8,32.0,29.94,WNW,292,6.0,11.0,66,0.00,,,0.00,Rainwise IP-100,2013-10-26 04:01:00,
2013-10-26 00:06:00,41.7,32.0,29.93,West,270,2.0,11.0,66,0.00,,,0.00,Rainwise IP-100,2013-10-26 04:06:00,
2013-10-26 00:11:00,41.8,32.0,29.94,West,270,2.0,11.0,65,0.00,,,0.00,Rainwise IP-100,2013-10-26 04:11:00,
2013-10-26 00:17:00,41.7,32.0,29.94,WNW,292,3.0,7.0,67,0.00,,,0.00,Rainwise IP-100,2013-10-26 04:17:00,
2013-10-26 00:22:00,41.4,31.0,29.94,NW,315,1.0,6.0,66,0.00,,,0.00,Rainwise IP-100,2013-10-26 04:22:00,
2013-10-26 00:27:00,41.1,31.0,29.94,SW,225,1.0,6.0,66,0.00,,,0.00,Rainwise IP-100,2013-10-26 04:27:00,
2013-10-26 00:32:00,40.9,31.0,29.94,WSW,247,2.0,7.0,65,0.00,,,0.00,Rainwise IP-100,2013-10-26 04:32:00,
2013-10-26 00:37:00,40.9,31.0,29.94,SW,225,3.0,7.0,65,0.00,,,0.00,Rainwise IP-100,2013-10-26 04:37:00,
2013-10-26 00:42:00,40.9,31.0,29.93,WNW,292,3.0,8.0,65,0.00,,,0.00,Rainwise IP-100,2013-10-26 04:42:00,
2013-10-26 00:47:00,41.1,31.0,29.93,SSW,202,2.0,12.0,64,0.00,,,0.00,Rainwise IP-100,2013-10-26 04:47:00,
2013-10-26 00:52:00,40.9,31.0,29.93,SSW,202,2.0,7.0,64,0.00,,,0.00,Rainwise IP-100,2013-10-26 04:52:00,
2013-10-26 00:57:00,40.9,31.0,29.93,West,270,4.0,10.0,65,0.00,,,0.00,Rainwise IP-100,2013-10-26 04:57:00,
2013-10-26 01:02:00,40.9,31.0,29.93,South,180,1.0,8.0,65,0.00,,,0.00,Rainwise IP-100,2013-10-26 05:02:00,
2013-10-26 01:07:00,40.8,31.0,29.93,West,270,3.0,8.0,66,0.00,,,0.00,Rainwise IP-100,2013-10-26 05:07:00,
2013-10-26 01:12:00,41.3,29.0,29.93,West,270,9.0,11.0,63,0.00,,,0.00,Rainwise IP-100,2013-10-26 05:12:00,
2013-10-26 01:17:00,41.2,31.0,29.93,SSW,202,3.0,10.0,65,0.00,,,0.00,Rainwise IP-100,2013-10-26 05:17:00,
2013-10-26 01:22:00,40.9,31.0,29.93,South,180,1.0,5.0,65,0.00,,,0.00,Rainwise IP-100,2013-10-26 05:22:00,
2013-10-26 01:27:00,40.7,31.0,29.93,South,180,4.0,6.0,66,0.00,,,0.00,Rainwise IP-100,2013-10-26 05:27:00,
2013-10-26 01:32:00,40.3,31.0,29.93,SSE,157,2.0,7.0,66,0.00,,,0.00,Rainwise IP-100,2013-10-26 05:32:00,
2013-10-26 01:37:00,40.4,31.0,29.94,NNW,337,0.0,7.0,66,0.00,,,0.00,Rainwise IP-100,2013-10-26 05:37:00,
2013-10-26 01:42:00,40.4,31.0,29.93,WNW,292,4.0,9.0,66,0.00,,,0.00,Rainwise IP-100,2013-10-26 05:42:00,
2013-10-26 01:47:00,40.3,31.0,29.94,South,180,1.0,8.0,66,0.00,,,0.00,Rainwise IP-100,2013-10-26 05:47:00,
2013-10-26 01:52:00,40.2,31.0,29.94,West,270,0.0,5.0,67,0.00,,,0.00,Rainwise IP-100,2013-10-26 05:52:00,
2013-10-26 01:57:00,39.8,31.0,29.94,SW,225,2.0,5.0,69,0.00,,,0.00,Rainwise IP-100,2013-10-26 05:57:00,
2013-10-26 02:02:00,39.9,31.0,29.93,WSW,247,1.0,6.0,69,0.00,,,0.00,Rainwise IP-100,2013-10-26 06:02:00,
2013-10-26 02:07:00,39.9,31.0,29.94,North,360,2.0,11.0,67,0.00,,,0.00,Rainwise IP-100,2013-10-26 06:07:00,
2013-10-26 02:10:00,39.9,31.0,29.94,West,270,2.0,9.0,67,0.00,,,0.00,Rainwise IP-100,2013-10-26 06:10:00,
2013-10-26 02:15:00,39.9,31.0,29.94,SW,225,2.0,4.0,66,0.00,,,0.00,Rainwise IP-100,2013-10-26 06:15:00,
2013-10-26 02:20:00,40.2,31.0,29.94,West,270,5.0,10.0,66,0.00,,,0.00,Rainwise IP-100,2013-10-26 06:20:00,
2013-10-26 02:25:00,40.3,29.0,29.94,West,270,6.0,11.0,65,0.00,,,0.00,Rainwise IP-100,2013-10-26 06:25:00,
2013-10-26 02:30:00,40.5,29.0,29.94,West,270,2.0,11.0,63,0.00,,,0.00,Rainwise IP-100,2013-10-26 06:30:00,
2013-10-26 02:35:00,40.5,31.0,29.94,SSW,202,1.0,11.0,64,0.00,,,0.00,Rainwise IP-100,2013-10-26 06:35:00,
2013-10-26 02:40:00,40.7,29.0,29.94,SSW,202,2.0,12.0,63,0.00,,,0.00,Rainwise IP-100,2013-10-26 06:40:00,
2013-10-26 02:45:00,40.6,29.0,29.94,SSW,202,4.0,11.0,63,0.00,,,0.00,Rainwise IP-100,2013-10-26 06:45:00,
2013-10-26 02:50:00,40.4,29.0,29.94,NNW,337,1.0,12.0,63,0.00,,,0.00,Rainwise IP-100,2013-10-26 06:50:00,
2013-10-26 02:55:00,40.5,29.0,29.94,WNW,292,4.0,9.0,63,0.00,,,0.00,Rainwise IP-100,2013-10-26 06:55:00,
2013-10-26 03:00:00,40.4,29.0,29.94,West,270,2.0,10.0,64,0.00,,,0.00,Rainwise IP-100,2013-10-26 07:00:00,
2013-10-26 03:05:00,40.4,29.0,29.94,WSW,247,2.0,12.0,65,0.00,,,0.00,Rainwise IP-100,2013-10-26 07:05:00,
2013-10-26 03:10:00,40.3,29.0,29.94,WSW,247,2.0,8.0,64,0.00,,,0.00,Rainwise IP-100,2013-10-26 07:10:00,
2013-10-26 03:15:00,40.3,29.0,29.94,WNW,292,7.0,9.0,64,0.00,,,0.00,Rainwise IP-100,2013-10-26 07:15:00,
2013-10-26 03:20:00,40.4,29.0,29.94,WNW,292,7.0,10.0,62,0.00,,,0.00,Rainwise IP-100,2013-10-26 07:20:00,
2013-10-26 03:25:00,40.4,29.0,29.94,WSW,247,2.0,11.0,63,0.00,,,0.00,Rainwise IP-100,2013-10-26 07:25:00,
2013-10-26 03:30:00,40.7,29.0,29.94,WNW,292,15.0,15.0,61,0.00,,,0.00,Rainwise IP-100,2013-10-26 07:30:00,
2013-10-26 03:35:00,40.8,28.0,29.93,West,270,5.0,17.0,59,0.00,,,0.00,Rainwise IP-100,2013-10-26 07:35:00,
2013-10-26 03:40:00,40.8,28.0,29.94,West,270,9.0,12.0,58,0.00,,,0.00,Rainwise IP-100,2013-10-26 07:40:00,
2013-10-26 03:45:00,40.6,28.0,29.94,WSW,247,7.0,14.0,59,0.00,,,0.00,Rainwise IP-100,2013-10-26 07:45:00,
2013-10-26 03:50:00,40.5,29.0,29.94,SSW,202,4.0,9.0,60,0.00,,,0.00,Rainwise IP-100,2013-10-26 07:50:00,
2013-10-26 03:55:00,40.5,29.0,29.93,WSW,247,6.0,11.0,60,0.00,,,0.00,Rainwise IP-100,2013-10-26 07:55:00,
2013-10-26 04:00:00,40.4,28.0,29.93,West,270,10.0,14.0,60,0.00,,,0.00,Rainwise IP-100,2013-10-26 08:00:00,
2013-10-26 04:05:00,40.4,28.0,29.93,South,180,4.0,11.0,60,0.00,,,0.00,Rainwise IP-100,2013-10-26 08:05:00,
2013-10-26 04:10:00,40.3,28.0,29.93,SW,225,2.0,11.0,61,0.00,,,0.00,Rainwise IP-100,2013-10-26 08:10:00,
2013-10-26 04:15:00,40.3,28.0,29.93,NNW,337,2.0,16.0,59,0.00,,,0.00,Rainwise IP-100,2013-10-26 08:15:00,
2013-10-26 04:20:00,40.0,28.0,29.93,West,270,2.0,7.0,61,0.00,,,0.00,Rainwise IP-100,2013-10-26 08:20:00,
2013-10-26 04:25:00,40.2,28.0,29.93,WNW,292,6.0,14.0,61,0.00,,,0.00,Rainwise IP-100,2013-10-26 08:25:00,
2013-10-26 04:30:00,40.1,28.0,29.94,WNW,292,3.0,9.0,61,0.00,,,0.00,Rainwise IP-100,2013-10-26 08:30:00,
2013-10-26 04:35:00,40.2,28.0,29.94,NNW,337,4.0,11.0,59,0.00,,,0.00,Rainwise IP-100,2013-10-26 08:35:00,
2013-10-26 04:40:00,39.9,28.0,29.94,SSW,202,3.0,11.0,61,0.00,,,0.00,Rainwise IP-100,2013-10-26 08:40:00,
2013-10-26 04:45:00,39.9,28.0,29.94,WNW,292,4.0,13.0,61,0.00,,,0.00,Rainwise IP-100,2013-10-26 08:45:00,
2013-10-26 04:50:00,39.9,28.0,29.94,WSW,247,2.0,13.0,60,0.00,,,0.00,Rainwise IP-100,2013-10-26 08:50:00,
2013-10-26 04:55:00,40.0,28.0,29.94,WSW,247,4.0,10.0,61,0.00,,,0.00,Rainwise IP-100,2013-10-26 08:55:00,
2013-10-26 05:00:00,39.7,28.0,29.94,WSW,247,0.0,7.0,61,0.00,,,0.00,Rainwise IP-100,2013-10-26 09:00:00,
2013-10-26 05:05:00,39.8,28.0,29.94,WNW,292,1.0,13.0,61,0.00,,,0.00,Rainwise IP-100,2013-10-26 09:05:00,
2013-10-26 05:10:00,39.7,28.0,29.94,West,270,3.0,10.0,61,0.00,,,0.00,Rainwise IP-100,2013-10-26 09:10:00,
2013-10-26 05:15:00,39.6,28.0,29.94,WSW,247,3.0,12.0,61,0.00,,,0.00,Rainwise IP-100,2013-10-26 09:15:00,
2013-10-26 05:20:00,39.6,28.0,29.94,NW,315,2.0,14.0,61,0.00,,,0.00,Rainwise IP-100,2013-10-26 09:20:00,
2013-10-26 05:25:00,39.7,28.0,29.94,WSW,247,2.0,12.0,61,0.00,,,0.00,Rainwise IP-100,2013-10-26 09:25:00,
2013-10-26 05:30:00,39.7,28.0,29.95,WSW,247,2.0,8.0,61,0.00,,,0.00,Rainwise IP-100,2013-10-26 09:30:00,
2013-10-26 05:35:00,39.7,28.0,29.95,WNW,292,2.0,11.0,60,0.00,,,0.00,Rainwise IP-100,2013-10-26 09:35:00,
2013-10-26 05:40:00,39.8,28.0,29.95,WNW,292,6.0,12.0,60,0.00,,,0.00,Rainwise IP-100,2013-10-26 09:40:00,
2013-10-26 05:45:00,39.7,28.0,29.95,WNW,292,2.0,14.0,59,0.00,,,0.00,Rainwise IP-100,2013-10-26 09:45:00,
2013-10-26 05:50:00,39.8,28.0,29.95,WNW,292,1.0,10.0,59,0.00,,,0.00,Rainwise IP-100,2013-10-26 09:50:00,
2013-10-26 05:55:00,39.7,28.0,29.94,SW,225,8.0,12.0,59,0.00,,,0.00,Rainwise IP-100,2013-10-26 09:55:00,
2013-10-26 06:00:00,39.6,28.0,29.95,WSW,247,2.0,14.0,58,0.00,,,0.00,Rainwise IP-100,2013-10-26 10:00:00,
2013-10-26 06:05:00,39.5,28.0,29.95,West,270,4.0,9.0,60,0.00,,,0.00,Rainwise IP-100,2013-10-26 10:05:00,
2013-10-26 06:10:00,39.6,28.0,29.94,SSW,202,1.0,11.0,61,0.00,,,0.00,Rainwise IP-100,2013-10-26 10:10:00,
2013-10-26 06:15:00,39.4,28.0,29.94,SSW,202,1.0,8.0,63,0.00,,,0.00,Rainwise IP-100,2013-10-26 10:15:00,
2013-10-26 06:20:00,39.2,28.0,29.94,SSW,202,5.0,8.0,63,0.00,,,0.00,Rainwise IP-100,2013-10-26 10:20:00,
2013-10-26 06:25:00,39.0,28.0,29.94,WSW,247,2.0,9.0,64,0.00,,,0.00,Rainwise IP-100,2013-10-26 10:25:00,
2013-10-26 06:30:00,38.8,29.0,29.94,SW,225,6.0,6.0,65,0.00,,,0.00,Rainwise IP-100,2013-10-26 10:30:00,
2013-10-26 06:35:00,38.7,29.0,29.95,SW,225,0.0,10.0,66,0.00,,,0.00,Rainwise IP-100,2013-10-26 10:35:00,
2013-10-26 06:40:00,38.5,29.0,29.95,West,270,1.0,9.0,66,0.00,,,0.00,Rainwise IP-100,2013-10-26 10:40:00,
2013-10-26 06:45:00,38.7,29.0,29.95,WSW,247,2.0,7.0,66,0.00,,,0.00,Rainwise IP-100,2013-10-26 10:45:00,
2013-10-26 06:50:00,38.7,29.0,29.95,SW,225,2.0,10.0,65,0.00,,,0.00,Rainwise IP-100,2013-10-26 10:50:00,
2013-10-26 06:55:00,38.8,29.0,29.95,WSW,247,2.0,6.0,66,0.00,,,0.00,Rainwise IP-100,2013-10-26 10:55:00,
2013-10-26 07:00:00,38.6,29.0,29.96,WSW,247,2.0,7.0,66,0.00,,,0.00,Rainwise IP-100,2013-10-26 11:00:00,
2013-10-26 07:05:00,38.8,29.0,29.96,West,270,2.0,9.0,65,0.00,,,0.00,Rainwise IP-100,2013-10-26 11:05:00,
2013-10-26 07:10:00,38.9,29.0,29.96,SW,225,2.0,7.0,65,0.00,,,0.00,Rainwise IP-100,2013-10-26 11:10:00,
2013-10-26 07:15:00,38.8,29.0,29.96,WNW,292,2.0,6.0,66,0.00,,,0.00,Rainwise IP-100,2013-10-26 11:15:00,
2013-10-26 07:20:00,39.2,28.0,29.96,SSW,202,1.0,10.0,64,0.00,,,0.00,Rainwise IP-100,2013-10-26 11:20:00,
2013-10-26 07:25:00,39.3,28.0,29.96,SSW,202,2.0,7.0,63,0.00,,,0.00,Rainwise IP-100,2013-10-26 11:25:00,
2013-10-26 07:30:00,39.6,29.0,29.96,South,180,0.0,11.0,62,0.00,,,0.00,Rainwise IP-100,2013-10-26 11:30:00,
2013-10-26 07:35:00,39.9,28.0,29.97,West,270,1.0,6.0,61,0.00,,,0.00,Rainwise IP-100,2013-10-26 11:35:00,
2013-10-26 07:40:00,40.2,28.0,29.97,West,270,1.0,12.0,61,0.00,,,0.00,Rainwise IP-100,2013-10-26 11:40:00,
2013-10-26 07:45:00,40.5,29.0,29.98,WNW,292,2.0,9.0,60,0.00,,,0.00,Rainwise IP-100,2013-10-26 11:45:00,
2013-10-26 07:50:00,40.8,29.0,29.98,West,270,2.0,6.0,61,0.00,,,0.00,Rainwise IP-100,2013-10-26 11:50:00,
2013-10-26 07:55:00,40.8,29.0,29.98,NW,315,4.0,7.0,62,0.00,,,0.00,Rainwise IP-100,2013-10-26 11:55:00,
2013-10-26 08:00:00,41.2,29.0,29.98,West,270,4.0,7.0,61,0.00,,,0.00,Rainwise IP-100,2013-10-26 12:00:00,
2013-10-26 08:05:00,41.3,28.0,29.98,NW,315,1.0,7.0,59,0.00,,,0.00,Rainwise IP-100,2013-10-26 12:05:00,
2013-10-26 08:10:00,41.6,29.0,29.99,WNW,292,2.0,9.0,58,0.00,,,0.00,Rainwise IP-100,2013-10-26 12:10:00,
2013-10-26 08:15:00,42.4,29.0,29.99,WSW,247,1.0,4.0,58,0.00,,,0.00,Rainwise IP-100,2013-10-26 12:15:00,
2013-10-26 08:20:00,42.6,31.0,29.99,SW,225,2.0,4.0,59,0.00,,,0.00,Rainwise IP-100,2013-10-26 12:20:00,
2013-10-26 08:25:00,42.4,29.0,30.00,WSW,247,0.0,8.0,58,0.00,,,0.00,Rainwise IP-100,2013-10-26 12:25:00,
2013-10-26 08:30:00,42.8,29.0,29.99,SW,225,2.0,8.0,57,0.00,,,0.00,Rainwise IP-100,2013-10-26 12:30:00,
2013-10-26 08:35:00,43.6,31.0,30.00,SSW,202,1.0,4.0,57,0.00,,,0.00,Rainwise IP-100,2013-10-26 12:35:00,
2013-10-26 08:40:00,43.9,29.0,30.00,SW,225,1.0,7.0,54,0.00,,,0.00,Rainwise IP-100,2013-10-26 12:40:00,
2013-10-26 08:45:00,43.8,28.0,30.00,SE,135,1.0,7.0,53,0.00,,,0.00,Rainwise IP-100,2013-10-26 12:45:00,
2013-10-26 08:50:00,44.6,28.0,30.00,West,270,2.0,4.0,51,0.00,,,0.00,Rainwise IP-100,2013-10-26 12:50:00,
2013-10-26 08:55:00,45.4,28.0,30.00,WSW,247,3.0,3.0,51,0.00,,,0.00,Rainwise IP-100,2013-10-26 12:55:00,
2013-10-26 09:00:00,45.4,28.0,30.00,WNW,292,2.0,7.0,49,0.00,,,0.00,Rainwise IP-100,2013-10-26 13:00:00,
2013-10-26 09:05:00,45.5,29.0,30.00,West,270,2.0,5.0,50,0.00,,,0.00,Rainwise IP-100,2013-10-26 13:05:00,
2013-10-26 09:10:00,45.8,29.0,30.00,West,270,2.0,7.0,52,0.00,,,0.00,Rainwise IP-100,2013-10-26 13:10:00,
2013-10-26 09:15:00,45.8,28.0,30.00,WSW,247,1.0,8.0,49,0.00,,,0.00,Rainwise IP-100,2013-10-26 13:15:00,
2013-10-26 09:20:00,45.9,29.0,30.01,SE,135,2.0,7.0,50,0.00,,,0.00,Rainwise IP-100,2013-10-26 13:20:00,
2013-10-26 09:25:00,45.7,29.0,30.01,South,180,2.0,6.0,51,0.00,,,0.00,Rainwise IP-100,2013-10-26 13:25:00,
2013-10-26 09:30:00,46.7,29.0,30.01,North,360,0.0,7.0,50,0.00,,,0.00,Rainwise IP-100,2013-10-26 13:30:00,
2013-10-26 09:35:00,46.9,28.0,30.01,West,270,4.0,4.0,48,0.00,,,0.00,Rainwise IP-100,2013-10-26 13:35:00,
2013-10-26 09:40:00,46.7,28.0,30.01,WSW,247,1.0,7.0,47,0.00,,,0.00,Rainwise IP-100,2013-10-26 13:40:00,
2013-10-26 09:45:00,47.1,28.0,30.01,SW,225,3.0,7.0,47,0.00,,,0.00,Rainwise IP-100,2013-10-26 13:45:00,
2013-10-26 09:50:00,47.2,28.0,30.01,WSW,247,1.0,7.0,46,0.00,,,0.00,Rainwise IP-100,2013-10-26 13:50:00,
2013-10-26 09:55:00,47.2,28.0,30.02,South,180,3.0,6.0,47,0.00,,,0.00,Rainwise IP-100,2013-10-26 13:55:00,
2013-10-26 10:00:00,47.5,29.0,30.02,North,360,0.0,11.0,47,0.00,,,0.00,Rainwise IP-100,2013-10-26 14:00:00,
2013-10-26 10:05:00,47.5,29.0,30.01,SSW,202,2.0,7.0,48,0.00,,,0.00,Rainwise IP-100,2013-10-26 14:05:00,
2013-10-26 10:10:00,47.2,28.0,30.02,SSE,157,2.0,12.0,48,0.00,,,0.00,Rainwise IP-100,2013-10-26 14:10:00,
2013-10-26 10:15:00,46.7,28.0,30.02,South,180,1.0,14.0,47,0.00,,,0.00,Rainwise IP-100,2013-10-26 14:15:00,
2013-10-26 10:20:00,46.9,28.0,30.01,SW,225,1.0,9.0,48,0.00,,,0.00,Rainwise IP-100,2013-10-26 14:20:00,
2013-10-26 10:25:00,47.1,28.0,30.01,SSW,202,4.0,9.0,48,0.00,,,0.00,Rainwise IP-100,2013-10-26 14:25:00,
2013-10-26 10:30:00,46.7,29.0,30.01,SW,225,2.0,8.0,50,0.00,,,0.00,Rainwise IP-100,2013-10-26 14:30:00,
2013-10-26 10:35:00,46.8,29.0,30.01,South,180,1.0,9.0,51,0.00,,,0.00,Rainwise IP-100,2013-10-26 14:35:00,
2013-10-26 10:40:00,46.9,29.0,30.01,West,270,1.0,8.0,51,0.00,,,0.00,Rainwise IP-100,2013-10-26 14:40:00,
2013-10-26 10:45:00,47.5,31.0,30.00,South,180,4.0,12.0,51,0.00,,,0.00,Rainwise IP-100,2013-10-26 14:45:00,
2013-10-26 10:50:00,47.9,31.0,30.00,SW,225,4.0,6.0,51,0.00,,,0.00,Rainwise IP-100,2013-10-26 14:50:00,
2013-10-26 10:55:00,48.5,32.0,30.00,SSE,157,1.0,7.0,52,0.00,,,0.00,Rainwise IP-100,2013-10-26 14:55:00,
2013-10-26 11:00:00,48.8,32.0,30.00,SSE,157,1.0,9.0,52,0.00,,,0.00,Rainwise IP-100,2013-10-26 15:00:00,
2013-10-26 11:05:00,49.1,32.0,30.00,SSW,202,2.0,10.0,52,0.00,,,0.00,Rainwise IP-100,2013-10-26 15:05:00,
2013-10-26 11:10:00,48.4,32.0,30.00,WSW,247,2.0,8.0,53,0.00,,,0.00,Rainwise IP-100,2013-10-26 15:10:00,
2013-10-26 11:15:00,48.5,33.0,30.00,SSW,202,4.0,7.0,54,0.00,,,0.00,Rainwise IP-100,2013-10-26 15:15:00,
2013-10-26 11:20:00,48.8,33.0,29.99,SW,225,5.0,9.0,55,0.00,,,0.00,Rainwise IP-100,2013-10-26 15:20:00,
2013-10-26 11:25:00,48.5,35.0,29.98,SE,135,2.0,9.0,56,0.00,,,0.00,Rainwise IP-100,2013-10-26 15:25:00,
2013-10-26 11:30:00,48.5,35.0,29.98,SSW,202,1.0,8.0,57,0.00,,,0.00,Rainwise IP-100,2013-10-26 15:30:00,
2013-10-26 11:35:00,49.0,35.0,29.98,SW,225,3.0,9.0,56,0.00,,,0.00,Rainwise IP-100,2013-10-26 15:35:00,
2013-10-26 11:40:00,49.5,35.0,29.98,WSW,247,0.0,7.0,56,0.00,,,0.00,Rainwise IP-100,2013-10-26 15:40:00,
2013-10-26 11:45:00,48.8,35.0,29.98,SE,135,1.0,9.0,57,0.00,,,0.00,Rainwise IP-100,2013-10-26 15:45:00,
2013-10-26 11:50:00,48.9,35.0,29.98,South,180,1.0,11.0,57,0.00,,,0.00,Rainwise IP-100,2013-10-26 15:50:00,
2013-10-26 11:55:00,49.2,35.0,29.98,South,180,6.0,8.0,58,0.00,,,0.00,Rainwise IP-100,2013-10-26 15:55:00,
2013-10-26 12:00:00,49.1,36.0,29.97,SSW,202,2.0,11.0,60,0.00,,,0.00,Rainwise IP-100,2013-10-26 16:00:00,
2013-10-26 12:05:00,48.9,36.0,29.97,South,180,7.0,9.0,60,0.00,,,0.00,Rainwise IP-100,2013-10-26 16:05:00,
2013-10-26 12:10:00,48.9,36.0,29.96,SSW,202,4.0,10.0,60,0.00,,,0.00,Rainwise IP-100,2013-10-26 16:10:00,
2013-10-26 12:15:00,48.9,36.0,29.96,ENE,67,1.0,11.0,59,0.00,,,0.00,Rainwise IP-100,2013-10-26 16:15:00,
2013-10-26 12:20:00,48.9,35.0,29.96,SSE,157,9.0,11.0,58,0.00,,,0.00,Rainwise IP-100,2013-10-26 16:20:00,
2013-10-26 12:25:00,49.1,35.0,29.95,SE,135,2.0,11.0,58,0.00,,,0.00,Rainwise IP-100,2013-10-26 16:25:00,
2013-10-26 12:30:00,49.8,36.0,29.95,SSW,202,2.0,11.0,58,0.00,,,0.00,Rainwise IP-100,2013-10-26 16:30:00,
2013-10-26 12:35:00,50.3,36.0,29.95,SE,135,2.0,15.0,58,0.00,,,0.00,Rainwise IP-100,2013-10-26 16:35:00,
2013-10-26 12:40:00,50.2,37.0,29.95,ESE,112,0.0,11.0,60,0.00,,,0.00,Rainwise IP-100,2013-10-26 16:40:00,
2013-10-26 12:45:00,50.7,36.0,29.95,SSW,202,2.0,14.0,58,0.00,,,0.00,Rainwise IP-100,2013-10-26 16:45:00,
2013-10-26 12:50:00,50.5,37.0,29.94,SSE,157,6.0,9.0,59,0.00,,,0.00,Rainwise IP-100,2013-10-26 16:50:00,
2013-10-26 12:55:00,50.3,37.0,29.94,SSW,202,4.0,11.0,61,0.00,,,0.00,Rainwise IP-100,2013-10-26 16:55:00,
2013-10-26 13:00:00,50.2,38.0,29.94,SSE,157,1.0,11.0,63,0.00,,,0.00,Rainwise IP-100,2013-10-26 17:00:00,
2013-10-26 13:05:00,50.3,37.0,29.93,SSW,202,2.0,12.0,62,0.00,,,0.00,Rainwise IP-100,2013-10-26 17:05:00,
2013-10-26 13:10:00,50.1,37.0,29.93,SSE,157,1.0,12.0,62,0.00,,,0.00,Rainwise IP-100,2013-10-26 17:10:00,
2013-10-26 13:15:00,49.7,38.0,29.93,SSW,202,5.0,20.0,65,0.00,,,0.00,Rainwise IP-100,2013-10-26 17:15:00,
2013-10-26 13:20:00,49.7,38.0,29.93,SSE,157,5.0,14.0,65,0.00,,,0.00,Rainwise IP-100,2013-10-26 17:20:00,
2013-10-26 13:25:00,49.6,39.0,29.92,SSE,157,1.0,14.0,66,0.00,,,0.00,Rainwise IP-100,2013-10-26 17:25:00,
2013-10-26 13:30:00,49.3,38.0,29.92,SE,135,2.0,20.0,66,0.00,,,0.00,Rainwise IP-100,2013-10-26 17:30:00,
2013-10-26 13:35:00,49.3,38.0,29.92,East,90,1.0,15.0,67,0.00,,,0.00,Rainwise IP-100,2013-10-26 17:35:00,
2013-10-26 13:40:00,49.2,39.0,29.92,SSE,157,1.0,10.0,68,0.00,,,0.00,Rainwise IP-100,2013-10-26 17:40:00,
2013-10-26 13:45:00,49.2,39.0,29.92,SSW,202,6.0,12.0,68,0.00,,,0.00,Rainwise IP-100,2013-10-26 17:45:00,
2013-10-26 13:50:00,49.3,38.0,29.92,SSE,157,9.0,16.0,66,0.00,,,0.00,Rainwise IP-100,2013-10-26 17:50:00,
2013-10-26 13:55:00,49.3,38.0,29.92,SSW,202,6.0,13.0,65,0.00,,,0.00,Rainwise IP-100,2013-10-26 17:55:00,
2013-10-26 14:00:00,49.2,38.0,29.91,SSE,157,1.0,12.0,65,0.00,,,0.00,Rainwise IP-100,2013-10-26 18:00:00,
2013-10-26 14:05:00,49.2,38.0,29.91,South,180,2.0,11.0,67,0.00,,,0.00,Rainwise IP-100,2013-10-26 18:05:00,
2013-10-26 14:10:00,49.1,39.0,29.91,West,270,5.0,14.0,68,0.00,,,0.00,Rainwise IP-100,2013-10-26 18:10:00,
2013-10-26 14:15:00,48.6,39.0,29.90,SE,135,12.0,12.0,68,0.00,,,0.00,Rainwise IP-100,2013-10-26 18:15:00,
2013-10-26 14:20:00,48.6,39.0,29.90,SW,225,7.0,16.0,68,0.00,,,0.00,Rainwise IP-100,2013-10-26 18:20:00,
2013-10-26 14:25:00,48.5,39.0,29.90,South,180,4.0,16.0,69,0.00,,,0.00,Rainwise IP-100,2013-10-26 18:25:00,
2013-10-26 14:30:00,48.6,39.0,29.90,SW,225,4.0,12.0,69,0.00,,,0.00,Rainwise IP-100,2013-10-26 18:30:00,
2013-10-26 14:35:00,48.7,39.0,29.90,SW,225,10.0,11.0,69,0.00,,,0.00,Rainwise IP-100,2013-10-26 18:35:00,
2013-10-26 14:40:00,48.8,40.0,29.90,SE,135,1.0,12.0,70,0.00,,,0.00,Rainwise IP-100,2013-10-26 18:40:00,
2013-10-26 14:45:00,48.9,40.0,29.89,SSW,202,4.0,16.0,70,0.00,,,0.00,Rainwise IP-100,2013-10-26 18:45:00,
2013-10-26 14:50:00,48.9,40.0,29.89,WSW,247,0.0,11.0,71,0.00,,,0.00,Rainwise IP-100,2013-10-26 18:50:00,
2013-10-26 14:55:00,49.0,40.0,29.89,SE,135,5.0,11.0,71,0.00,,,0.00,Rainwise IP-100,2013-10-26 18:55:00,
2013-10-26 15:00:00,48.7,41.0,29.89,SSE,157,4.0,12.0,73,0.00,,,0.00,Rainwise IP-100,2013-10-26 19:00:00,
2013-10-26 15:05:00,48.3,41.0,29.88,SSW,202,1.0,9.0,76,0.00,,,0.00,Rainwise IP-100,2013-10-26 19:05:00,
2013-10-26 15:10:00,48.2,39.0,29.88,South,180,2.0,14.0,71,0.00,,,0.00,Rainwise IP-100,2013-10-26 19:10:00,
2013-10-26 15:15:00,48.5,39.0,29.88,SSW,202,4.0,12.0,68,0.00,,,0.00,Rainwise IP-100,2013-10-26 19:15:00,
2013-10-26 15:20:00,48.6,39.0,29.88,South,180,2.0,16.0,68,0.00,,,0.00,Rainwise IP-100,2013-10-26 19:20:00,
2013-10-26 15:25:00,48.7,39.0,29.88,WSW,247,1.0,16.0,68,0.00,,,0.00,Rainwise IP-100,2013-10-26 19:25:00,
2013-10-26 15:30:00,48.8,38.0,29.88,SSW,202,4.0,25.0,67,0.00,,,0.00,Rainwise IP-100,2013-10-26 19:30:00,
2013-10-26 15:35:00,48.8,38.0,29.88,South,180,2.0,16.0,67,0.00,,,0.00,Rainwise IP-100,2013-10-26 19:35:00,
2013-10-26 15:40:00,48.8,38.0,29.87,SSW,202,2.0,14.0,65,0.00,,,0.00,Rainwise IP-100,2013-10-26 19:40:00,
2013-10-26 15:45:00,48.9,37.0,29.87,SW,225,9.0,11.0,64,0.00,,,0.00,Rainwise IP-100,2013-10-26 19:45:00,
2013-10-26 15:50:00,48.8,36.0,29.87,SSE,157,5.0,18.0,61,0.00,,,0.00,Rainwise IP-100,2013-10-26 19:50:00,
2013-10-26 15:55:00,48.6,33.0,29.88,SSW,202,2.0,16.0,53,0.00,,,0.00,Rainwise IP-100,2013-10-26 19:55:00,
2013-10-26 16:00:00,48.0,33.0,29.87,South,180,7.0,19.0,57,0.00,,,0.00,Rainwise IP-100,2013-10-26 20:00:00,
2013-10-26 16:05:00,47.8,33.0,29.88,SW,225,6.0,22.0,57,0.00,,,0.00,Rainwise IP-100,2013-10-26 20:05:00,
2013-10-26 16:10:00,47.6,33.0,29.88,WSW,247,5.0,14.0,59,0.00,,,0.00,Rainwise IP-100,2013-10-26 20:10:00,
2013-10-26 16:15:00,47.1,35.0,29.87,SSE,157,2.0,12.0,63,0.00,,,0.00,Rainwise IP-100,2013-10-26 20:15:00,
2013-10-26 16:20:00,47.2,35.0,29.87,ESE,112,1.0,9.0,62,0.00,,,0.00,Rainwise IP-100,2013-10-26 20:20:00,
2013-10-26 16:25:00,47.9,33.0,29.86,SSE,157,6.0,20.0,57,0.00,,,0.00,Rainwise IP-100,2013-10-26 20:25:00,
2013-10-26 16:30:00,47.9,35.0,29.86,WNW,292,2.0,10.0,60,0.00,,,0.00,Rainwise IP-100,2013-10-26 20:30:00,
2013-10-26 16:35:00,47.9,36.0,29.86,SSE,157,6.0,17.0,62,0.00,,,0.00,Rainwise IP-100,2013-10-26 20:35:00,
2013-10-26 16:40:00,47.8,36.0,29.86,South,180,8.0,24.0,65,0.00,,,0.00,Rainwise IP-100,2013-10-26 20:40:00,
2013-10-26 16:45:00,47.8,36.0,29.86,SW,225,4.0,17.0,65,0.00,,,0.00,Rainwise IP-100,2013-10-26 20:45:00,
2013-10-26 16:50:00,47.8,36.0,29.86,SE,135,1.0,9.0,65,0.00,,,0.00,Rainwise IP-100,2013-10-26 20:50:00,
2013-10-26 16:55:00,47.8,37.0,29.86,SSE,157,1.0,11.0,67,0.00,,,0.00,Rainwise IP-100,2013-10-26 20:55:00,
2013-10-26 17:00:00,47.6,37.0,29.86,SSE,157,1.0,17.0,67,0.00,,,0.00,Rainwise IP-100,2013-10-26 21:00:00,
2013-10-26 17:05:00,47.2,37.0,29.86,West,270,1.0,11.0,69,0.00,,,0.00,Rainwise IP-100,2013-10-26 21:05:00,
2013-10-26 17:10:00,46.9,38.0,29.86,West,270,4.0,12.0,71,0.00,,,0.00,Rainwise IP-100,2013-10-26 21:10:00,
2013-10-26 17:15:00,46.7,38.0,29.85,NW,315,2.0,9.0,72,0.00,,,0.00,Rainwise IP-100,2013-10-26 21:15:00,
2013-10-26 17:20:00,46.7,38.0,29.85,SSW,202,7.0,17.0,71,0.00,,,0.00,Rainwise IP-100,2013-10-26 21:20:00,
2013-10-26 17:25:00,46.5,39.0,29.85,WSW,247,4.0,9.0,74,0.00,,,0.00,Rainwise IP-100,2013-10-26 21:25:00,
2013-10-26 17:30:00,46.2,38.0,29.84,South,180,1.0,9.0,74,0.00,,,0.00,Rainwise IP-100,2013-10-26 21:30:00,
2013-10-26 17:35:00,46.2,38.0,29.84,SSE,157,3.0,9.0,73,0.00,,,0.00,Rainwise IP-100,2013-10-26 21:35:00,
2013-10-26 17:40:00,46.1,38.0,29.85,WNW,292,6.0,11.0,74,0.00,,,0.00,Rainwise IP-100,2013-10-26 21:40:00,
2013-10-26 17:45:00,45.5,38.0,29.84,SW,225,0.0,16.0,75,0.00,,,0.00,Rainwise IP-100,2013-10-26 21:45:00,
2013-10-26 17:50:00,44.9,38.0,29.83,NE,45,1.0,7.0,76,0.00,,,0.00,Rainwise IP-100,2013-10-26 21:50:00,
2013-10-26 17:55:00,44.8,38.0,29.83,SSW,202,2.0,7.0,75,0.00,,,0.00,Rainwise IP-100,2013-10-26 21:55:00,
2013-10-26 18:00:00,45.0,37.0,29.82,South,180,0.0,7.0,72,0.00,,,0.00,Rainwise IP-100,2013-10-26 22:00:00,
2013-10-26 18:05:00,44.9,37.0,29.82,South,180,0.0,0.0,74,0.00,,,0.00,Rainwise IP-100,2013-10-26 22:05:00,
2013-10-26 18:10:00,44.7,37.0,29.82,South,180,0.0,0.0,74,0.00,,,0.00,Rainwise IP-100,2013-10-26 22:10:00,
2013-10-26 18:15:00,44.4,37.0,29.82,South,180,0.0,0.0,75,0.00,,,0.00,Rainwise IP-100,2013-10-26 22:15:00,
2013-10-26 18:20:00,44.2,37.0,29.82,South,180,0.0,2.0,76,0.00,,,0.00,Rainwise IP-100,2013-10-26 22:20:00,
2013-10-26 18:25:00,43.9,38.0,29.81,South,180,0.0,2.0,78,0.00,,,0.00,Rainwise IP-100,2013-10-26 22:25:00,
2013-10-26 18:30:00,43.7,38.0,29.81,South,180,0.0,0.0,80,0.00,,,0.00,Rainwise IP-100,2013-10-26 22:30:00,
2013-10-26 18:35:00,43.6,38.0,29.81,SSE,157,1.0,2.0,79,0.00,,,0.00,Rainwise IP-100,2013-10-26 22:35:00,
2013-10-26 18:40:00,43.8,37.0,29.81,SSE,157,0.0,2.0,77,0.00,,,0.00,Rainwise IP-100,2013-10-26 22:40:00,
2013-10-26 18:45:00,44.5,38.0,29.81,South,180,1.0,6.0,78,0.00,,,0.00,Rainwise IP-100,2013-10-26 22:45:00,
2013-10-26 18:50:00,45.9,39.0,29.81,SSE,157,4.0,8.0,78,0.00,,,0.00,Rainwise IP-100,2013-10-26 22:50:00,
2013-10-26 18:55:00,46.8,39.0,29.80,SSE,157,4.0,7.0,75,0.00,,,0.00,Rainwise IP-100,2013-10-26 22:55:00,
2013-10-26 19:00:00,47.5,39.0,29.81,SSW,202,2.0,7.0,74,0.00,,,0.00,Rainwise IP-100,2013-10-26 23:00:00,
2013-10-26 19:05:00,47.9,40.0,29.81,SSE,157,3.0,9.0,73,0.00,,,0.00,Rainwise IP-100,2013-10-26 23:05:00,
2013-10-26 19:10:00,48.2,40.0,29.81,SSE,157,1.0,7.0,73,0.00,,,0.00,Rainwise IP-100,2013-10-26 23:10:00,
2013-10-26 19:15:00,48.3,39.0,29.81,ESE,112,2.0,9.0,71,0.00,,,0.00,Rainwise IP-100,2013-10-26 23:15:00,
2013-10-26 19:20:00,48.7,40.0,29.81,South,180,1.0,7.0,71,0.00,,,0.00,Rainwise IP-100,2013-10-26 23:20:00,
2013-10-26 19:25:00,48.9,40.0,29.81,SSW,202,2.0,7.0,71,0.00,,,0.00,Rainwise IP-100,2013-10-26 23:25:00,
2013-10-26 19:30:00,48.8,40.0,29.81,SE,135,4.0,8.0,71,0.00,,,0.00,Rainwise IP-100,2013-10-26 23:30:00,
2013-10-26 19:35:00,49.0,40.0,29.81,SSE,157,0.0,9.0,71,0.00,,,0.00,Rainwise IP-100,2013-10-26 23:35:00,
2013-10-26 19:40:00,48.9,40.0,29.81,South,180,1.0,6.0,72,0.00,,,0.00,Rainwise IP-100,2013-10-26 23:40:00,
2013-10-26 19:45:00,48.8,41.0,29.81,SSE,157,2.0,7.0,73,0.00,,,0.00,Rainwise IP-100,2013-10-26 23:45:00,
2013-10-26 19:50:00,48.9,41.0,29.81,SE,135,2.0,6.0,73,0.00,,,0.00,Rainwise IP-100,2013-10-26 23:50:00,
2013-10-26 19:55:00,48.9,41.0,29.80,SSE,157,4.0,4.0,74,0.00,,,0.00,Rainwise IP-100,2013-10-26 23:55:00,
2013-10-26 20:00:00,48.9,41.0,29.80,South,180,2.0,10.0,75,0.00,,,0.00,Rainwise IP-100,2013-10-27 00:00:00,
2013-10-26 20:05:00,48.9,41.0,29.80,South,180,0.0,5.0,75,0.00,,,0.00,Rainwise IP-100,2013-10-27 00:05:00,
2013-10-26 20:10:00,48.9,41.0,29.80,ESE,112,2.0,7.0,75,0.00,,,0.00,Rainwise IP-100,2013-10-27 00:10:00,
2013-10-26 20:15:00,49.5,40.0,29.80,North,360,2.0,11.0,69,0.00,,,0.00,Rainwise IP-100,2013-10-27 00:15:00,
2013-10-26 20:20:00,49.8,39.0,29.80,SSW,202,4.0,11.0,68,0.00,,,0.00,Rainwise IP-100,2013-10-27 00:20:00,
2013-10-26 20:25:00,50.1,39.0,29.79,SSE,157,11.0,15.0,66,0.00,,,0.00,Rainwise IP-100,2013-10-27 00:25:00,
2013-10-26 20:30:00,50.4,38.0,29.79,NNW,337,5.0,24.0,62,0.00,,,0.00,Rainwise IP-100,2013-10-27 00:30:00,
2013-10-26 20:35:00,50.6,38.0,29.79,SSW,202,2.0,15.0,62,0.00,,,0.00,Rainwise IP-100,2013-10-27 00:35:00,
2013-10-26 20:40:00,50.8,38.0,29.80,WSW,247,12.0,28.0,63,0.00,,,0.00,Rainwise IP-100,2013-10-27 00:40:00,
2013-10-26 20:45:00,50.8,38.0,29.79,SSW,202,2.0,20.0,63,0.00,,,0.00,Rainwise IP-100,2013-10-27 00:45:00,
2013-10-26 20:50:00,50.7,38.0,29.80,SSE,157,6.0,14.0,63,0.00,,,0.00,Rainwise IP-100,2013-10-27 00:50:00,
2013-10-26 20:55:00,50.9,39.0,29.80,SSE,157,1.0,13.0,64,0.00,,,0.00,Rainwise IP-100,2013-10-27 00:55:00,
2013-10-26 21:00:00,50.9,40.0,29.80,South,180,9.0,10.0,66,0.00,,,0.00,Rainwise IP-100,2013-10-27 01:00:00,
2013-10-26 21:05:00,51.0,40.0,29.80,South,180,9.0,13.0,66,0.00,,,0.00,Rainwise IP-100,2013-10-27 01:05:00,
2013-10-26 21:10:00,51.1,40.0,29.80,SSW,202,2.0,12.0,67,0.00,,,0.00,Rainwise IP-100,2013-10-27 01:10:00,
2013-10-26 21:15:00,51.0,40.0,29.80,ENE,67,4.0,17.0,65,0.00,,,0.00,Rainwise IP-100,2013-10-27 01:15:00,
2013-10-26 21:20:00,51.1,39.0,29.80,NNW,337,2.0,20.0,64,0.00,,,0.00,Rainwise IP-100,2013-10-27 01:20:00,
2013-10-26 21:25:00,50.8,39.0,29.80,SE,135,6.0,11.0,65,0.00,,,0.00,Rainwise IP-100,2013-10-27 01:25:00,
2013-10-26 21:30:00,50.9,40.0,29.79,SSE,157,4.0,14.0,66,0.00,,,0.00,Rainwise IP-100,2013-10-27 01:30:00,
2013-10-26 21:35:00,50.9,40.0,29.80,SSE,157,1.0,22.0,66,0.00,,,0.00,Rainwise IP-100,2013-10-27 01:35:00,
2013-10-26 21:40:00,50.9,40.0,29.80,SE,135,2.0,18.0,65,0.00,,,0.00,Rainwise IP-100,2013-10-27 01:40:00,
2013-10-26 21:45:00,50.9,39.0,29.80,SSW,202,7.0,16.0,64,0.00,,,0.00,Rainwise IP-100,2013-10-27 01:45:00,
2013-10-26 21:50:00,50.9,40.0,29.80,SSW,202,6.0,14.0,65,0.00,,,0.00,Rainwise IP-100,2013-10-27 01:50:00,
2013-10-26 21:55:00,50.8,39.0,29.80,South,180,2.0,17.0,65,0.00,,,0.00,Rainwise IP-100,2013-10-27 01:55:00,
2013-10-26 22:00:00,50.8,39.0,29.79,SSE,157,1.0,15.0,64,0.00,,,0.00,Rainwise IP-100,2013-10-27 02:00:00,
2013-10-26 22:05:00,50.8,39.0,29.79,South,180,2.0,17.0,65,0.00,,,0.00,Rainwise IP-100,2013-10-27 02:05:00,
2013-10-26 22:10:00,50.8,39.0,29.79,ESE,112,1.0,18.0,65,0.00,,,0.00,Rainwise IP-100,2013-10-27 02:10:00,
2013-10-26 22:15:00,50.8,39.0,29.79,SE,135,7.0,13.0,65,0.00,,,0.00,Rainwise IP-100,2013-10-27 02:15:00,
2013-10-26 22:20:00,50.8,39.0,29.78,West,270,2.0,16.0,65,0.00,,,0.00,Rainwise IP-100,2013-10-27 02:20:00,
2013-10-26 22:25:00,50.8,39.0,29.79,South,180,1.0,12.0,66,0.00,,,0.00,Rainwise IP-100,2013-10-27 02:25:00,
2013-10-26 22:30:00,50.8,39.0,29.79,SSE,157,4.0,17.0,65,0.00,,,0.00,Rainwise IP-100,2013-10-27 02:30:00,
2013-10-26 22:35:00,50.9,40.0,29.79,SW,225,5.0,14.0,66,0.00,,,0.00,Rainwise IP-100,2013-10-27 02:35:00,
2013-10-26 22:40:00,50.9,39.0,29.79,South,180,5.0,17.0,63,0.00,,,0.00,Rainwise IP-100,2013-10-27 02:40:00,
2013-10-26 22:45:00,50.9,38.0,29.78,South,180,9.0,14.0,61,0.00,,,0.00,Rainwise IP-100,2013-10-27 02:45:00,
2013-10-26 22:50:00,50.9,38.0,29.79,South,180,7.0,14.0,61,0.00,,,0.00,Rainwise IP-100,2013-10-27 02:50:00,
2013-10-26 22:55:00,50.9,38.0,29.79,South,180,2.0,16.0,61,0.00,,,0.00,Rainwise IP-100,2013-10-27 02:55:00,
2013-10-26 23:00:00,50.8,38.0,29.78,SSE,157,4.0,15.0,63,0.00,,,0.00,Rainwise IP-100,2013-10-27 03:00:00,
2013-10-26 23:05:00,50.8,39.0,29.78,SE,135,3.0,12.0,64,0.00,,,0.00,Rainwise IP-100,2013-10-27 03:05:00,
2013-10-26 23:10:00,50.8,39.0,29.78,WSW,247,10.0,19.0,64,0.00,,,0.00,Rainwise IP-100,2013-10-27 03:10:00,
2013-10-26 23:15:00,50.7,39.0,29.78,South,180,5.0,17.0,64,0.00,,,0.00,Rainwise IP-100,2013-10-27 03:15:00,
2013-10-26 23:20:00,50.7,39.0,29.78,WSW,247,6.0,18.0,64,0.00,,,0.00,Rainwise IP-100,2013-10-27 03:20:00,
2013-10-26 23:25:00,50.7,39.0,29.78,SSW,202,4.0,18.0,64,0.00,,,0.00,Rainwise IP-100,2013-10-27 03:25:00,
2013-10-26 23:30:00,50.5,39.0,29.78,SSW,202,5.0,11.0,64,0.00,,,0.00,Rainwise IP-100,2013-10-27 03:30:00,
2013-10-26 23:35:00,50.4,38.0,29.78,SSW,202,4.0,13.0,62,0.00,,,0.00,Rainwise IP-100,2013-10-27 03:35:00,
2013-10-26 23:40:00,50.4,38.0,29.78,SSW,202,9.0,20.0,62,0.00,,,0.00,Rainwise IP-100,2013-10-27 03:40:00,
2013-10-26 23:45:00,50.5,38.0,29.78,SSW,202,4.0,16.0,63,0.00,,,0.00,Rainwise IP-100,2013-10-27 03:45:00,
2013-10-26 23:50:00,50.5,38.0,29.78,SSW,202,6.0,13.0,63,0.00,,,0.00,Rainwise IP-100,2013-10-27 03:50:00,
2013-10-26 23:55:00,50.7,38.0,29.78,SW,225,4.0,17.0,63,0.00,,,0.00,Rainwise IP-100,2013-10-27 03:55:00,